Time,TemperatureF,DewpointF,PressureIn,WindDirection,WindDirectionDegrees,WindSpeedMPH,WindSpeedGustMPH,Humidity,HourlyPrecipIn,Conditions,Clouds,dailyrainin,SoftwareType,DateUTC
2013-05-21 00:06:00,59.9,55.7,29.81,WSW,242,0.0,0.0,86,0.00,,,0.00,Wunderground v.1.12,2013-05-21 07:06:00,
2013-05-21 00:15:00,60.4,56.8,29.81,SE,135,0.0,1.0,88,0.00,,,0.00,Wunderground v.1.12,2013-05-21 07:15:00,
2013-05-21 00:16:00,60.2,56.3,29.81,South,182,0.0,0.0,87,0.00,,,0.00,Wunderground v.1.12,2013-05-21 07:16:00,
2013-05-21 00:25:00,60.5,56.9,29.81,SE,144,0.0,0.0,88,0.00,,,0.00,Wunderground v.1.12,2013-05-21 07:25:00,
2013-05-21 00:31:00,60.9,57.6,29.81,ESE,123,1.0,1.0,89,0.00,,,0.00,Wunderground v.1.12,2013-05-21 07:31:00,
2013-05-21 00:40:00,61.3,58.0,29.81,ESE,121,1.0,1.0,89,0.00,,,0.00,Wunderground v.1.12,2013-05-21 07:40:00,
2013-05-21 00:45:00,61.6,58.6,29.81,SE,135,1.0,5.0,90,0.00,,,0.00,Wunderground v.1.12,2013-05-21 07:45:00,
2013-05-21 00:46:00,61.5,58.2,29.81,ESE,117,1.0,1.0,89,0.00,,,0.00,Wunderground v.1.12,2013-05-21 07:46:00,
2013-05-21 00:55:00,61.6,58.6,29.81,ESE,109,0.0,2.0,90,0.00,,,0.00,Wunderground v.1.12,2013-05-21 07:55:00,
2013-05-21 01:01:00,61.8,58.5,29.81,SE,130,1.0,3.0,89,0.00,,,0.00,Wunderground v.1.12,2013-05-21 08:01:00,
2013-05-21 01:10:00,61.6,58.3,29.81,ESE,119,1.0,1.0,89,0.00,,,0.00,Wunderground v.1.12,2013-05-21 08:10:00,
2013-05-21 01:15:00,61.5,58.2,29.81,ESE,113,1.0,4.0,89,0.00,,,0.00,Wunderground v.1.12,2013-05-21 08:15:00,
2013-05-21 01:16:00,61.5,58.2,29.81,East,80,1.0,1.0,89,0.00,,,0.00,Wunderground v.1.12,2013-05-21 08:16:00,
2013-05-21 01:26:00,61.5,58.2,29.81,ESE,117,1.0,1.0,89,0.00,,,0.00,Wunderground v.1.12,2013-05-21 08:26:00,
2013-05-21 01:36:00,61.3,58.0,29.81,ESE,116,0.0,0.0,89,0.00,,,0.00,Wunderground v.1.12,2013-05-21 08:36:00,
2013-05-21 01:45:00,61.2,57.9,29.80,ESE,113,1.0,6.0,89,0.00,,,0.00,Wunderground v.1.12,2013-05-21 08:45:00,
2013-05-21 01:46:00,61.3,58.0,29.81,East,96,1.0,1.0,89,0.00,,,0.00,Wunderground v.1.12,2013-05-21 08:46:00,
2013-05-21 01:56:00,61.2,57.9,29.80,SE,129,1.0,1.0,89,0.00,,,0.00,Wunderground v.1.12,2013-05-21 08:56:00,
2013-05-21 02:05:00,61.0,57.7,29.80,SE,128,1.0,1.0,89,0.00,,,0.00,Wunderground v.1.12,2013-05-21 09:05:00,
2013-05-21 02:10:00,60.9,57.6,29.79,SE,135,0.0,1.0,89,0.00,,,0.00,Wunderground v.1.12,2013-05-21 09:10:00,
2013-05-21 02:11:00,61.0,57.7,29.79,SE,128,0.0,0.0,89,0.00,,,0.00,Wunderground v.1.12,2013-05-21 09:11:00,
2013-05-21 02:21:00,60.9,57.6,29.79,SE,137,0.0,0.0,89,0.00,,,0.00,Wunderground v.1.12,2013-05-21 09:21:00,
2013-05-21 02:30:00,60.9,57.6,29.79,East,90,0.0,3.0,89,0.00,,,0.00,Wunderground v.1.12,2013-05-21 09:30:00,
2013-05-21 02:31:00,60.9,57.6,29.79,SE,134,1.0,1.0,89,0.00,,,0.00,Wunderground v.1.12,2013-05-21 09:31:00,
2013-05-21 02:41:00,60.9,57.6,29.79,East,88,1.0,2.0,89,0.00,,,0.00,Wunderground v.1.12,2013-05-21 09:41:00,
2013-05-21 02:50:00,60.7,57.4,29.79,ENE,68,0.0,3.0,89,0.00,,,0.00,Wunderground v.1.12,2013-05-21 09:50:00,
2013-05-21 02:51:00,60.7,57.4,29.79,ESE,123,1.0,1.0,89,0.00,,,0.00,Wunderground v.1.12,2013-05-21 09:51:00,
2013-05-21 03:01:00,60.7,57.4,29.79,East,88,1.0,1.0,89,0.00,,,0.00,Wunderground v.1.12,2013-05-21 10:01:00,
2013-05-21 03:11:00,60.7,57.4,29.78,ESE,115,1.0,1.0,89,0.00,,,0.00,Wunderground v.1.12,2013-05-21 10:11:00,
2013-05-21 03:20:00,60.5,57.2,29.78,ESE,113,1.0,5.0,89,0.00,,,0.00,Wunderground v.1.12,2013-05-21 10:20:00,
2013-05-21 03:21:00,60.5,57.2,29.78,ESE,111,1.0,1.0,89,0.00,,,0.00,Wunderground v.1.12,2013-05-21 10:21:00,
2013-05-21 03:31:00,60.5,57.2,29.78,SE,127,1.0,1.0,89,0.00,,,0.00,Wunderground v.1.12,2013-05-21 10:31:00,
2013-05-21 03:40:00,60.4,57.1,29.78,SE,124,0.0,0.0,89,0.00,,,0.00,Wunderground v.1.12,2013-05-21 10:40:00,
2013-05-21 03:45:00,60.4,57.1,29.77,ESE,113,1.0,4.0,89,0.00,,,0.00,Wunderground v.1.12,2013-05-21 10:45:00,
2013-05-21 03:46:00,60.4,57.1,29.78,SE,132,0.0,0.0,89,0.00,,,0.00,Wunderground v.1.12,2013-05-21 10:46:00,
2013-05-21 03:56:00,60.4,57.1,29.77,ESE,111,1.0,2.0,89,0.00,,,0.00,Wunderground v.1.12,2013-05-21 10:56:00,
2013-05-21 04:05:00,60.4,57.1,29.77,ESE,102,1.0,3.0,89,0.00,,,0.00,Wunderground v.1.12,2013-05-21 11:05:00,
2013-05-21 04:10:00,60.4,57.5,29.77,East,90,1.0,3.0,90,0.00,,,0.00,Wunderground v.1.12,2013-05-21 11:10:00,
2013-05-21 04:11:00,60.4,57.1,29.77,East,84,1.0,1.0,89,0.00,,,0.00,Wunderground v.1.12,2013-05-21 11:11:00,
2013-05-21 04:21:00,60.2,57.3,29.77,East,84,0.0,0.0,90,0.00,,,0.00,Wunderground v.1.12,2013-05-21 11:21:00,
2013-05-21 04:30:00,60.2,57.3,29.77,East,90,0.0,1.0,90,0.00,,,0.00,Wunderground v.1.12,2013-05-21 11:30:00,
2013-05-21 04:31:00,60.2,57.3,29.77,East,88,1.0,1.0,90,0.00,,,0.00,Wunderground v.1.12,2013-05-21 11:31:00,
2013-05-21 04:41:00,60.2,57.3,29.77,ESE,119,0.0,0.0,90,0.00,,,0.00,Wunderground v.1.12,2013-05-21 11:41:00,
2013-05-21 04:50:00,60.2,57.3,29.77,ESE,120,1.0,3.0,90,0.00,,,0.00,Wunderground v.1.12,2013-05-21 11:50:00,
2013-05-21 04:55:00,60.1,57.2,29.77,SE,135,1.0,4.0,90,0.00,,,0.00,Wunderground v.1.12,2013-05-21 11:55:00,
2013-05-21 04:56:00,60.2,57.3,29.77,SE,130,2.0,2.0,90,0.00,,,0.00,Wunderground v.1.12,2013-05-21 11:56:00,
2013-05-21 05:06:00,60.1,57.2,29.78,ENE,71,1.0,1.0,90,0.00,,,0.00,Wunderground v.1.12,2013-05-21 12:06:00,
2013-05-21 05:15:00,60.1,57.2,29.78,ESE,113,0.0,3.0,90,0.00,,,0.00,Wunderground v.1.12,2013-05-21 12:15:00,
2013-05-21 05:16:00,60.1,57.2,29.78,East,99,1.0,1.0,90,0.00,,,0.00,Wunderground v.1.12,2013-05-21 12:16:00,
2013-05-21 05:26:00,60.1,57.2,29.78,ESE,117,0.0,0.0,90,0.00,,,0.00,Wunderground v.1.12,2013-05-21 12:26:00,
2013-05-21 05:35:00,60.1,57.2,29.79,East,90,1.0,7.0,90,0.00,,,0.00,Wunderground v.1.12,2013-05-21 12:35:00,
2013-05-21 05:36:00,60.1,57.2,29.78,ENE,74,1.0,1.0,90,0.00,,,0.00,Wunderground v.1.12,2013-05-21 12:36:00,
2013-05-21 05:41:00,60.1,57.2,29.79,East,99,1.0,1.0,90,0.00,,,0.00,Wunderground v.1.12,2013-05-21 12:41:00,
2013-05-21 05:46:00,59.9,57.0,29.79,ESE,118,1.0,1.0,90,0.00,,,0.00,Wunderground v.1.12,2013-05-21 12:46:00,
2013-05-21 05:55:00,59.9,57.0,29.79,SE,135,1.0,5.0,90,0.00,,,0.00,Wunderground v.1.12,2013-05-21 12:55:00,
2013-05-21 05:56:00,59.9,57.0,29.79,ESE,103,0.0,1.0,90,0.00,,,0.00,Wunderground v.1.12,2013-05-21 12:56:00,
2013-05-21 06:06:00,59.9,57.0,29.79,South,177,1.0,1.0,90,0.00,,,0.00,Wunderground v.1.12,2013-05-21 13:06:00,
2013-05-21 06:15:00,59.9,57.0,29.79,ESE,103,1.0,1.0,90,0.00,,,0.00,Wunderground v.1.12,2013-05-21 13:15:00,
2013-05-21 06:20:00,59.9,57.0,29.79,ESE,113,1.0,4.0,90,0.00,,,0.00,Wunderground v.1.12,2013-05-21 13:20:00,
2013-05-21 06:21:00,59.9,57.0,29.79,East,91,0.0,0.0,90,0.00,,,0.00,Wunderground v.1.12,2013-05-21 13:21:00,
2013-05-21 06:30:00,59.9,57.0,29.79,East,96,1.0,1.0,90,0.00,,,0.00,Wunderground v.1.12,2013-05-21 13:30:00,
2013-05-21 06:36:00,59.9,57.0,29.80,East,98,0.0,0.0,90,0.00,,,0.00,Wunderground v.1.12,2013-05-21 13:36:00,
2013-05-21 06:45:00,60.1,57.2,29.80,SSE,165,0.0,0.0,90,0.00,,,0.00,Wunderground v.1.12,2013-05-21 13:45:00,
2013-05-21 06:51:00,60.1,57.2,29.80,SW,234,0.0,0.0,90,0.00,,,0.00,Wunderground v.1.12,2013-05-21 13:51:00,
2013-05-21 07:01:00,60.2,57.3,29.80,ESE,110,0.0,0.0,90,0.00,,,0.00,Wunderground v.1.12,2013-05-21 14:01:00,
2013-05-21 07:10:00,60.4,57.5,29.81,East,90,0.0,1.0,90,0.00,,,0.00,Wunderground v.1.12,2013-05-21 14:10:00,
2013-05-21 07:11:00,60.4,57.5,29.81,East,101,0.0,0.0,90,0.00,,,0.00,Wunderground v.1.12,2013-05-21 14:11:00,
2013-05-21 07:21:00,60.4,57.5,29.81,East,93,0.0,0.0,90,0.00,,,0.00,Wunderground v.1.12,2013-05-21 14:21:00,
2013-05-21 07:30:00,60.4,57.5,29.81,East,86,1.0,1.0,90,0.00,,,0.00,Wunderground v.1.12,2013-05-21 14:30:00,
2013-05-21 07:35:00,60.5,57.2,29.81,ESE,113,0.0,1.0,89,0.00,,,0.00,Wunderground v.1.12,2013-05-21 14:35:00,
2013-05-21 07:36:00,60.4,57.5,29.81,ESE,119,0.0,0.0,90,0.00,,,0.00,Wunderground v.1.12,2013-05-21 14:36:00,
2013-05-21 07:46:00,60.7,57.4,29.81,SE,144,0.0,0.0,89,0.00,,,0.00,Wunderground v.1.12,2013-05-21 14:46:00,
2013-05-21 07:55:00,61.0,57.7,29.81,ENE,70,0.0,0.0,89,0.00,,,0.00,Wunderground v.1.12,2013-05-21 14:55:00,
2013-05-21 08:00:00,61.2,57.9,29.82,ESE,113,1.0,4.0,89,0.00,,,0.00,Wunderground v.1.12,2013-05-21 15:00:00,
2013-05-21 08:01:00,61.2,57.9,29.81,East,101,0.0,0.0,89,0.00,,,0.00,Wunderground v.1.12,2013-05-21 15:01:00,
2013-05-21 08:06:00,61.2,57.9,29.81,ESE,119,0.0,0.0,89,0.00,,,0.00,Wunderground v.1.12,2013-05-21 15:06:00,
2013-05-21 08:11:00,61.3,57.7,29.82,ENE,61,1.0,1.0,88,0.00,,,0.00,Wunderground v.1.12,2013-05-21 15:11:00,
2013-05-21 08:20:00,61.3,57.7,29.82,ESE,107,1.0,1.0,88,0.00,,,0.00,Wunderground v.1.12,2013-05-21 15:20:00,
2013-05-21 08:25:00,62.0,58.1,29.82,N/A,-737280,0.0,0.0,87,0.00,,,0.00,Wunderground v.1.12,2013-05-21 15:25:00,
2013-05-21 08:26:00,61.6,58.0,29.82,ESE,122,1.0,1.0,88,0.00,,,0.00,Wunderground v.1.12,2013-05-21 15:26:00,
2013-05-21 08:35:00,62.1,58.2,29.82,ENE,78,0.0,0.0,87,0.00,,,0.00,Wunderground v.1.12,2013-05-21 15:35:00,
2013-05-21 08:41:00,62.3,58.1,29.82,ENE,77,0.0,0.0,86,0.00,,,0.00,Wunderground v.1.12,2013-05-21 15:41:00,
2013-05-21 08:50:00,62.9,58.3,29.82,East,92,0.0,0.0,85,0.00,,,0.00,Wunderground v.1.12,2013-05-21 15:50:00,
2013-05-21 08:55:00,63.4,58.5,29.82,ENE,68,0.0,5.0,84,0.00,,,0.00,Wunderground v.1.12,2013-05-21 15:55:00,
2013-05-21 08:56:00,63.1,58.2,29.82,ENE,59,0.0,0.0,84,0.00,,,0.00,Wunderground v.1.12,2013-05-21 15:56:00,
2013-05-21 09:05:00,63.5,58.6,29.82,East,94,0.0,3.0,84,0.00,,,0.00,Wunderground v.1.12,2013-05-21 16:05:00,
2013-05-21 09:11:00,63.9,58.6,29.82,ENE,68,0.0,0.0,83,0.00,,,0.00,Wunderground v.1.12,2013-05-21 16:11:00,
2013-05-21 09:20:00,64.3,58.3,29.82,East,91,0.0,0.0,81,0.00,,,0.00,Wunderground v.1.12,2013-05-21 16:20:00,
2013-05-21 09:25:00,64.8,58.5,29.82,East,90,0.0,3.0,80,0.00,,,0.00,Wunderground v.1.12,2013-05-21 16:25:00,
2013-05-21 09:26:00,64.7,58.4,29.82,East,91,0.0,0.0,80,0.00,,,0.00,Wunderground v.1.12,2013-05-21 16:26:00,
2013-05-21 09:35:00,65.2,58.5,29.82,ENE,76,0.0,0.0,79,0.00,,,0.00,Wunderground v.1.12,2013-05-21 16:35:00,
2013-05-21 09:41:00,65.6,58.2,29.82,ENE,76,0.0,0.0,77,0.00,,,0.00,Wunderground v.1.12,2013-05-21 16:41:00,
2013-05-21 09:51:00,65.8,58.0,29.82,ENE,76,0.0,0.0,76,0.00,,,0.00,Wunderground v.1.12,2013-05-21 16:51:00,
2013-05-21 10:00:00,67.9,59.7,29.82,East,90,1.0,4.0,75,0.00,,,0.00,Wunderground v.1.12,2013-05-21 17:00:00,
2013-05-21 10:01:00,66.9,59.5,29.82,ENE,76,1.0,2.0,77,0.00,,,0.00,Wunderground v.1.12,2013-05-21 17:01:00,
2013-05-21 10:11:00,68.3,59.3,29.82,ESE,123,1.0,2.0,73,0.00,,,0.00,Wunderground v.1.12,2013-05-21 17:11:00,
2013-05-21 10:20:00,68.9,59.9,29.82,East,81,1.0,1.0,73,0.00,,,0.00,Wunderground v.1.12,2013-05-21 17:20:00,
2013-05-21 10:30:00,70.9,59.8,29.81,ENE,68,1.0,6.0,68,0.00,,,0.00,Wunderground v.1.12,2013-05-21 17:30:00,
2013-05-21 10:31:00,70.1,59.9,29.81,East,83,1.0,1.0,70,0.00,,,0.00,Wunderground v.1.12,2013-05-21 17:31:00,
2013-05-21 10:41:00,71.1,59.6,29.81,ENE,64,1.0,1.0,67,0.00,,,0.00,Wunderground v.1.12,2013-05-21 17:41:00,
2013-05-21 10:50:00,72.5,60.1,29.81,ENE,68,2.0,5.0,65,0.00,,,0.00,Wunderground v.1.12,2013-05-21 17:50:00,
2013-05-21 10:51:00,71.5,60.0,29.81,ESE,119,1.0,1.0,67,0.00,,,0.00,Wunderground v.1.12,2013-05-21 17:51:00,
2013-05-21 11:00:00,73.0,60.1,29.81,East,92,1.0,2.0,64,0.00,,,0.00,Wunderground v.1.12,2013-05-21 18:00:00,
2013-05-21 11:06:00,74.0,60.6,29.81,East,87,1.0,3.0,63,0.00,,,0.00,Wunderground v.1.12,2013-05-21 18:06:00,
2013-05-21 11:15:00,75.4,60.5,29.80,East,86,1.0,4.0,60,0.00,,,0.00,Wunderground v.1.12,2013-05-21 18:15:00,
2013-05-21 11:20:00,76.5,61.6,29.81,ENE,68,2.0,6.0,60,0.00,,,0.00,Wunderground v.1.12,2013-05-21 18:20:00,
2013-05-21 11:21:00,76.0,60.6,29.80,ENE,69,2.0,3.0,59,0.00,,,0.00,Wunderground v.1.12,2013-05-21 18:21:00,
2013-05-21 11:31:00,76.8,61.4,29.81,East,88,2.0,2.0,59,0.00,,,0.00,Wunderground v.1.12,2013-05-21 18:31:00,
2013-05-21 11:40:00,77.4,61.0,29.81,ENE,74,1.0,1.0,57,0.00,,,0.00,Wunderground v.1.12,2013-05-21 18:40:00,
2013-05-21 11:50:00,78.6,60.6,29.80,ENE,68,2.0,5.0,54,0.00,,,0.00,Wunderground v.1.12,2013-05-21 18:50:00,
2013-05-21 11:51:00,78.3,60.8,29.81,East,79,2.0,2.0,55,0.00,,,0.00,Wunderground v.1.12,2013-05-21 18:51:00,
2013-05-21 12:01:00,78.8,60.7,29.80,ENE,66,1.0,1.0,54,0.00,,,0.00,Wunderground v.1.12,2013-05-21 19:01:00,
2013-05-21 12:10:00,79.6,60.4,29.80,East,90,1.0,5.0,52,0.00,,,0.00,Wunderground v.1.12,2013-05-21 19:10:00,
2013-05-21 12:11:00,79.6,61.0,29.80,East,81,1.0,1.0,53,0.00,,,0.00,Wunderground v.1.12,2013-05-21 19:11:00,
2013-05-21 12:20:00,79.6,59.9,29.80,ENE,68,1.0,1.0,51,0.00,,,0.00,Wunderground v.1.12,2013-05-21 19:20:00,
2013-05-21 12:26:00,79.6,60.4,29.80,ENE,78,1.0,3.0,52,0.00,,,0.00,Wunderground v.1.12,2013-05-21 19:26:00,
2013-05-21 12:35:00,79.2,61.1,29.80,NE,45,1.0,4.0,54,0.00,,,0.00,Wunderground v.1.12,2013-05-21 19:35:00,
2013-05-21 12:36:00,79.6,61.0,29.80,East,82,1.0,1.0,53,0.00,,,0.00,Wunderground v.1.12,2013-05-21 19:36:00,
2013-05-21 12:45:00,79.4,60.8,29.80,East,88,1.0,1.0,53,0.00,,,0.00,Wunderground v.1.12,2013-05-21 19:45:00,
2013-05-21 12:51:00,80.1,59.2,29.80,NE,55,1.0,1.0,49,0.00,,,0.00,Wunderground v.1.12,2013-05-21 19:51:00,
2013-05-21 13:00:00,80.7,59.2,29.80,NE,51,2.0,2.0,48,0.00,,,0.00,Wunderground v.1.12,2013-05-21 20:00:00,
2013-05-21 13:05:00,80.3,61.1,29.79,East,90,1.0,5.0,52,0.00,,,0.00,Wunderground v.1.12,2013-05-21 20:05:00,
2013-05-21 13:06:00,80.5,60.1,29.80,East,86,2.0,2.0,50,0.00,,,0.00,Wunderground v.1.12,2013-05-21 20:06:00,
2013-05-21 13:16:00,80.5,60.7,29.79,East,91,1.0,1.0,51,0.00,,,0.00,Wunderground v.1.12,2013-05-21 20:16:00,
2013-05-21 13:26:00,80.7,59.2,29.79,East,80,1.0,1.0,48,0.00,,,0.00,Wunderground v.1.12,2013-05-21 20:26:00,
2013-05-21 13:35:00,81.2,60.8,29.79,ENE,68,2.0,5.0,50,0.00,,,0.00,Wunderground v.1.12,2013-05-21 20:35:00,
2013-05-21 13:36:00,80.3,60.0,29.79,ENE,75,1.0,1.0,50,0.00,,,0.00,Wunderground v.1.12,2013-05-21 20:36:00,
2013-05-21 13:45:00,81.8,60.2,29.79,ENE,75,2.0,2.0,48,0.00,,,0.00,Wunderground v.1.12,2013-05-21 20:45:00,
2013-05-21 13:51:00,82.0,60.4,29.77,ESE,107,2.0,2.0,48,0.00,,,0.00,Wunderground v.1.12,2013-05-21 20:51:00,
2013-05-21 14:00:00,81.6,60.6,29.77,ENE,68,1.0,3.0,49,0.00,,,0.00,Wunderground v.1.12,2013-05-21 21:00:00,
2013-05-21 14:05:00,82.0,59.8,29.77,East,90,2.0,6.0,47,0.00,,,0.00,Wunderground v.1.12,2013-05-21 21:05:00,
2013-05-21 14:06:00,82.0,60.4,29.77,North,350,1.0,2.0,48,0.00,,,0.00,Wunderground v.1.12,2013-05-21 21:06:00,
2013-05-21 14:16:00,82.2,60.0,29.77,NE,40,1.0,5.0,47,0.00,,,0.00,Wunderground v.1.12,2013-05-21 21:16:00,
2013-05-21 14:25:00,82.4,59.5,29.77,East,92,2.0,2.0,46,0.00,,,0.00,Wunderground v.1.12,2013-05-21 21:25:00,
2013-05-21 14:30:00,82.6,59.7,29.76,ENE,68,1.0,5.0,46,0.00,,,0.00,Wunderground v.1.12,2013-05-21 21:30:00,
2013-05-21 14:31:00,82.2,60.0,29.77,East,101,1.0,1.0,47,0.00,,,0.00,Wunderground v.1.12,2013-05-21 21:31:00,
2013-05-21 14:41:00,83.0,60.7,29.76,NW,320,1.0,1.0,47,0.00,,,0.00,Wunderground v.1.12,2013-05-21 21:41:00,
2013-05-21 14:50:00,84.0,60.4,29.76,NE,47,1.0,1.0,45,0.00,,,0.00,Wunderground v.1.12,2013-05-21 21:50:00,
2013-05-21 15:00:00,82.8,61.1,29.75,ENE,68,2.0,5.0,48,0.00,,,0.00,Wunderground v.1.12,2013-05-21 22:00:00,
2013-05-21 15:01:00,82.8,59.9,29.76,NE,37,1.0,1.0,46,0.00,,,0.00,Wunderground v.1.12,2013-05-21 22:01:00,
2013-05-21 15:06:00,82.8,61.1,29.76,ENE,69,1.0,3.0,48,0.00,,,0.00,Wunderground v.1.12,2013-05-21 22:06:00,
2013-05-21 15:16:00,81.1,60.1,29.75,NW,316,0.0,0.0,49,0.00,,,0.00,Wunderground v.1.12,2013-05-21 22:16:00,
2013-05-21 15:25:00,80.9,61.1,29.75,East,84,1.0,1.0,51,0.00,,,0.00,Wunderground v.1.12,2013-05-21 22:25:00,
2013-05-21 15:35:00,80.7,60.3,29.75,East,90,0.0,4.0,50,0.00,,,0.00,Wunderground v.1.12,2013-05-21 22:35:00,
2013-05-21 15:36:00,81.4,60.4,29.75,East,88,1.0,1.0,49,0.00,,,0.00,Wunderground v.1.12,2013-05-21 22:36:00,
2013-05-21 15:46:00,79.8,60.6,29.75,SSW,198,0.0,2.0,52,0.00,,,0.00,Wunderground v.1.12,2013-05-21 22:46:00,
2013-05-21 15:55:00,73.0,59.2,29.74,SW,225,1.0,7.0,62,0.00,,,0.00,Wunderground v.1.12,2013-05-21 22:55:00,
2013-05-21 15:56:00,74.7,59.4,29.74,SW,221,2.0,3.0,59,0.00,,,0.00,Wunderground v.1.12,2013-05-21 22:56:00,
2013-05-21 16:05:00,73.2,59.4,29.74,SW,218,2.0,2.0,62,0.00,,,0.00,Wunderground v.1.12,2013-05-21 23:05:00,
2013-05-21 16:11:00,73.0,58.8,29.74,SW,223,1.0,4.0,61,0.00,,,0.00,Wunderground v.1.12,2013-05-21 23:11:00,
2013-05-21 16:20:00,70.9,58.5,29.74,SW,225,2.0,6.0,65,0.00,,,0.00,Wunderground v.1.12,2013-05-21 23:20:00,
2013-05-21 16:21:00,71.6,58.3,29.74,WSW,253,2.0,2.0,63,0.00,,,0.00,Wunderground v.1.12,2013-05-21 23:21:00,
2013-05-21 16:30:00,70.1,58.6,29.74,SW,215,2.0,2.0,67,0.00,,,0.00,Wunderground v.1.12,2013-05-21 23:30:00,
2013-05-21 16:36:00,69.9,58.9,29.74,South,181,2.0,2.0,68,0.00,,,0.00,Wunderground v.1.12,2013-05-21 23:36:00,
2013-05-21 16:45:00,68.9,58.7,29.73,West,273,3.0,10.0,70,0.00,,,0.00,Wunderground v.1.12,2013-05-21 23:45:00,
2013-05-21 16:50:00,67.6,58.6,29.74,SW,225,2.0,7.0,73,0.00,,,0.00,Wunderground v.1.12,2013-05-21 23:50:00,
2013-05-21 16:51:00,67.8,58.1,29.73,WSW,257,3.0,3.0,71,0.00,,,0.00,Wunderground v.1.12,2013-05-21 23:51:00,
2013-05-21 17:00:00,67.9,58.1,29.73,West,270,3.0,9.0,71,0.00,,,0.00,Wunderground v.1.12,2013-05-22 00:00:00,
2013-05-21 17:06:00,67.6,58.2,29.73,SSW,204,3.0,3.0,72,0.00,,,0.00,Wunderground v.1.12,2013-05-22 00:06:00,
2013-05-21 17:15:00,66.3,57.8,29.73,SW,225,4.0,11.0,74,0.00,,,0.00,Wunderground v.1.12,2013-05-22 00:15:00,
2013-05-21 17:16:00,67.3,58.0,29.74,West,279,3.0,9.0,72,0.00,,,0.00,Wunderground v.1.12,2013-05-22 00:16:00,
2013-05-21 17:25:00,66.3,57.8,29.73,West,263,4.0,4.0,74,0.00,,,0.00,Wunderground v.1.12,2013-05-22 00:25:00,
2013-05-21 17:31:00,66.6,57.7,29.73,WNW,285,2.0,2.0,73,0.00,,,0.00,Wunderground v.1.12,2013-05-22 00:31:00,
2013-05-21 17:40:00,67.6,57.9,29.73,WNW,283,1.0,1.0,71,0.00,,,0.00,Wunderground v.1.12,2013-05-22 00:40:00,
2013-05-21 17:45:00,67.3,57.6,29.73,SSE,158,2.0,8.0,71,0.00,,,0.00,Wunderground v.1.12,2013-05-22 00:45:00,
2013-05-21 17:46:00,67.8,57.7,29.73,SW,236,1.0,2.0,70,0.00,,,0.00,Wunderground v.1.12,2013-05-22 00:46:00,
2013-05-21 17:55:00,67.3,57.6,29.73,WSW,240,1.0,1.0,71,0.00,,,0.00,Wunderground v.1.12,2013-05-22 00:55:00,
2013-05-21 18:01:00,67.1,57.0,29.73,West,277,1.0,1.0,70,0.00,,,0.00,Wunderground v.1.12,2013-05-22 01:01:00,
2013-05-21 18:06:00,67.1,57.4,29.73,SW,230,2.0,2.0,71,0.00,,,0.00,Wunderground v.1.12,2013-05-22 01:06:00,
2013-05-21 18:15:00,65.2,57.4,29.72,SW,225,1.0,7.0,76,0.00,,,0.00,Wunderground v.1.12,2013-05-22 01:15:00,
2013-05-21 18:16:00,65.5,57.0,29.73,SSW,211,3.0,4.0,74,0.00,,,0.00,Wunderground v.1.12,2013-05-22 01:16:00,
2013-05-21 18:26:00,65.3,56.8,29.72,SW,220,2.0,2.0,74,0.00,,,0.00,Wunderground v.1.12,2013-05-22 01:26:00,
2013-05-21 18:35:00,65.8,56.9,29.72,WSW,238,1.0,2.0,73,0.00,,,0.00,Wunderground v.1.12,2013-05-22 01:35:00,
2013-05-21 18:40:00,64.5,56.8,29.73,SW,225,1.0,4.0,76,0.00,,,0.00,Wunderground v.1.12,2013-05-22 01:40:00,
2013-05-21 18:41:00,65.2,57.4,29.73,West,264,2.0,3.0,76,0.00,,,0.00,Wunderground v.1.12,2013-05-22 01:41:00,
2013-05-21 18:46:00,64.7,57.0,29.73,West,279,2.0,2.0,76,0.00,,,0.00,Wunderground v.1.12,2013-05-22 01:46:00,
2013-05-21 18:51:00,64.5,57.1,29.73,West,265,1.0,1.0,77,0.00,,,0.00,Wunderground v.1.12,2013-05-22 01:51:00,
2013-05-21 19:00:00,64.3,56.9,29.72,SSW,194,1.0,1.0,77,0.00,,,0.00,Wunderground v.1.12,2013-05-22 02:00:00,
2013-05-21 19:05:00,63.7,57.1,29.72,West,270,0.0,4.0,79,0.00,,,0.00,Wunderground v.1.12,2013-05-22 02:05:00,
2013-05-21 19:06:00,64.2,57.2,29.72,West,279,1.0,3.0,78,0.00,,,0.00,Wunderground v.1.12,2013-05-22 02:06:00,
2013-05-21 19:15:00,63.2,56.9,29.72,West,275,1.0,1.0,80,0.00,,,0.00,Wunderground v.1.12,2013-05-22 02:15:00,
2013-05-21 19:21:00,62.6,56.7,29.72,West,264,1.0,2.0,81,0.00,,,0.00,Wunderground v.1.12,2013-05-22 02:21:00,
2013-05-21 19:30:00,62.0,56.8,29.72,SSW,204,1.0,1.0,83,0.00,,,0.00,Wunderground v.1.12,2013-05-22 02:30:00,
2013-05-21 19:41:00,61.8,56.6,29.72,SSW,199,0.0,0.0,83,0.00,,,0.00,Wunderground v.1.12,2013-05-22 02:41:00,
2013-05-21 19:50:00,61.5,56.6,29.72,SSW,200,0.0,0.0,84,0.00,,,0.00,Wunderground v.1.12,2013-05-22 02:50:00,
2013-05-21 19:55:00,61.2,56.3,29.72,SW,225,0.0,1.0,84,0.00,,,0.00,Wunderground v.1.12,2013-05-22 02:55:00,
2013-05-21 19:56:00,61.3,56.4,29.72,SSW,196,0.0,0.0,84,0.00,,,0.00,Wunderground v.1.12,2013-05-22 02:56:00,
2013-05-21 20:05:00,60.9,56.0,29.72,SW,225,0.0,0.0,84,0.00,,,0.00,Wunderground v.1.12,2013-05-22 03:05:00,
2013-05-21 20:11:00,60.7,55.8,29.72,SW,225,0.0,0.0,84,0.00,,,0.00,Wunderground v.1.12,2013-05-22 03:11:00,
2013-05-21 20:20:00,60.2,55.7,29.73,SW,225,0.0,2.0,85,0.00,,,0.00,Wunderground v.1.12,2013-05-22 03:20:00,
2013-05-21 20:21:00,60.4,55.9,29.72,SW,225,0.0,0.0,85,0.00,,,0.00,Wunderground v.1.12,2013-05-22 03:21:00,
2013-05-21 20:31:00,60.1,55.9,29.73,SSW,209,0.0,0.0,86,0.00,,,0.00,Wunderground v.1.12,2013-05-22 03:31:00,
2013-05-21 20:40:00,59.8,55.6,29.73,SSW,209,0.0,0.0,86,0.00,,,0.00,Wunderground v.1.12,2013-05-22 03:40:00,
2013-05-21 20:50:00,59.2,55.3,29.73,SSW,203,0.0,3.0,87,0.00,,,0.00,Wunderground v.1.12,2013-05-22 03:50:00,
2013-05-21 20:51:00,59.3,55.1,29.73,SSW,209,0.0,0.0,86,0.00,,,0.00,Wunderground v.1.12,2013-05-22 03:51:00,
2013-05-21 21:00:00,59.2,55.3,29.73,SSW,196,0.0,0.0,87,0.00,,,0.00,Wunderground v.1.12,2013-05-22 04:00:00,
2013-05-21 21:06:00,59.2,55.3,29.73,SSW,196,0.0,0.0,87,0.00,,,0.00,Wunderground v.1.12,2013-05-22 04:06:00,
2013-05-21 21:11:00,59.0,55.1,29.74,SSW,196,0.0,0.0,87,0.00,,,0.00,Wunderground v.1.12,2013-05-22 04:11:00,
2013-05-21 21:20:00,58.7,55.2,29.74,N/A,-737280,0.0,0.0,88,0.00,,,0.00,Wunderground v.1.12,2013-05-22 04:20:00,
2013-05-21 21:21:00,58.9,55.4,29.74,SSW,196,0.0,0.0,88,0.00,,,0.00,Wunderground v.1.12,2013-05-22 04:21:00,
2013-05-21 21:26:00,58.7,55.2,29.74,SSW,196,0.0,0.0,88,0.00,,,0.00,Wunderground v.1.12,2013-05-22 04:26:00,
2013-05-21 21:36:00,58.6,55.1,29.74,SSW,196,0.0,0.0,88,0.00,,,0.00,Wunderground v.1.12,2013-05-22 04:36:00,
2013-05-21 21:46:00,58.4,54.9,29.74,SSW,196,0.0,0.0,88,0.00,,,0.00,Wunderground v.1.12,2013-05-22 04:46:00,
2013-05-21 21:55:00,58.4,55.2,29.74,N/A,-737280,0.0,0.0,89,0.00,,,0.00,Wunderground v.1.12,2013-05-22 04:55:00,
2013-05-21 21:56:00,58.3,55.1,29.74,SSW,196,0.0,0.0,89,0.00,,,0.00,Wunderground v.1.12,2013-05-22 04:56:00,
2013-05-21 22:06:00,58.4,55.2,29.74,SSW,196,0.0,0.0,89,0.00,,,0.00,Wunderground v.1.12,2013-05-22 05:06:00,
2013-05-21 22:15:00,58.3,55.4,29.74,SSW,196,0.0,0.0,90,0.00,,,0.00,Wunderground v.1.12,2013-05-22 05:15:00,
2013-05-21 22:25:00,57.8,54.6,29.74,N/A,-737280,0.0,0.0,89,0.00,,,0.00,Wunderground v.1.12,2013-05-22 05:25:00,
2013-05-21 22:26:00,58.1,54.9,29.74,SSW,196,0.0,0.0,89,0.00,,,0.00,Wunderground v.1.12,2013-05-22 05:26:00,
2013-05-21 22:35:00,57.8,54.9,29.74,SSW,196,0.0,0.0,90,0.00,,,0.00,Wunderground v.1.12,2013-05-22 05:35:00,
2013-05-21 22:41:00,57.8,54.9,29.74,SSW,196,0.0,0.0,90,0.00,,,0.00,Wunderground v.1.12,2013-05-22 05:41:00,
2013-05-21 22:50:00,57.6,54.7,29.74,N/A,-737280,0.0,0.0,90,0.00,,,0.00,Wunderground v.1.12,2013-05-22 05:50:00,
2013-05-21 22:51:00,57.6,54.7,29.74,SSW,196,0.0,0.0,90,0.00,,,0.00,Wunderground v.1.12,2013-05-22 05:51:00,
2013-05-21 23:00:00,57.5,54.6,29.74,SSW,196,0.0,0.0,90,0.00,,,0.00,Wunderground v.1.12,2013-05-22 06:00:00,
2013-05-21 23:06:00,57.6,54.7,29.74,SSW,196,0.0,0.0,90,0.00,,,0.00,Wunderground v.1.12,2013-05-22 06:06:00,
2013-05-21 23:16:00,58.0,55.4,29.74,SSW,196,0.0,0.0,91,0.00,,,0.00,Wunderground v.1.12,2013-05-22 06:16:00,
2013-05-21 23:25:00,58.4,55.8,29.74,SSW,203,0.0,3.0,91,0.00,,,0.00,Wunderground v.1.12,2013-05-22 06:25:00,
2013-05-21 23:26:00,58.1,55.5,29.74,SSW,196,0.0,0.0,91,0.00,,,0.00,Wunderground v.1.12,2013-05-22 06:26:00,
2013-05-21 23:35:00,58.6,56.0,29.74,SSW,193,0.0,0.0,91,0.00,,,0.00,Wunderground v.1.12,2013-05-22 06:35:00,
2013-05-21 23:41:00,58.7,56.1,29.74,East,100,0.0,2.0,91,0.00,,,0.00,Wunderground v.1.12,2013-05-22 06:41:00,
2013-05-21 23:51:00,58.9,56.3,29.74,ESE,119,0.0,0.0,91,0.00,,,0.00,Wunderground v.1.12,2013-05-22 06:51:00,
2013-05-21 23:55:00,59.2,56.6,29.74,ESE,113,0.0,1.0,91,0.00,,,0.00,Wunderground v.1.12,2013-05-22 06:55:00,
2013-05-21 23:56:00,59.0,56.4,29.74,ESE,121,0.0,0.0,91,0.00,,,0.00,Wunderground v.1.12,2013-05-22 06:56:00,